Time;durP1;ratioP1;P1;durP2;ratioP2;P2;SDS_P1;SDS_P2;PMS_P1;PMS_P2;Temp;Humidity;BMP_temperature;BMP_pressure;BME280_temperature;BME280_humidity;BME280_pressure;Samples;Min_cycle;Max_cycle;Signal;HPM_P1;HPM_P2
2023/07/10 16:24:47;;;;;;;17.13;8.77;;;24.80;61.80;;;;;;5110977;27;20392;-51
2023/07/10 16:27:13;;;;;;;15.02;7.07;;;25.50;66.90;;;;;;5109387;28;20032;-50
2023/07/10 16:29:39;;;;;;;11.45;6.07;;;25.50;66.20;;;;;;5104688;28;20082;-56
2023/07/10 16:32:16;;;;;;;11.43;5.10;;;25.50;64.60;;;;;;5108275;28;20032;-51
2023/07/10 16:34:42;;;;;;;9.93;5.70;;;25.50;64.00;;;;;;5107260;28;20039;-51
2023/07/10 16:37:13;;;;;;;12.05;5.93;;;25.40;63.70;;;;;;5130169;22;20161;-49
2023/07/10 16:39:39;;;;;;;12.63;5.25;;;25.40;63.50;;;;;;5043578;28;20033;-53
2023/07/10 16:42:13;;;;;;;8.32;5.25;;;25.40;63.60;;;;;;5048033;28;20029;-53
2023/07/10 16:44:40;;;;;;;8.05;5.38;;;25.30;63.50;;;;;;5048115;28;20460;-50
2023/07/10 16:47:16;;;;;;;9.90;5.13;;;25.30;63.60;;;;;;5048353;28;20025;-55
2023/07/10 16:49:43;;;;;;;13.63;5.68;;;25.30;63.90;;;;;;5041715;28;20517;-54
2023/07/10 16:52:11;;;;;;;11.95;5.25;;;25.30;64.10;;;;;;5041102;28;20021;-54
2023/07/10 16:54:37;;;;;;;10.18;4.85;;;25.30;63.30;;;;;;5045425;28;20029;-54
2023/07/10 16:57:04;;;;;;;9.77;4.70;;;25.40;62.90;;;;;;5044150;28;20105;-53
2023/07/10 16:59:29;;;;;;;12.80;4.75;;;25.40;62.10;;;;;;5043000;28;20057;-52
2023/07/10 17:01:57;;;;;;;10.20;4.90;;;25.30;62.20;;;;;;5039420;28;20245;-53
2023/07/10 17:04:23;;;;;;;7.80;4.15;;;25.30;61.60;;;;;;5037895;28;20043;-53
2023/07/10 17:06:51;;;;;;;6.72;3.70;;;25.30;61.20;;;;;;5045437;28;20017;-53
2023/07/10 17:09:17;;;;;;;17.38;5.05;;;25.30;60.10;;;;;;5040168;28;20025;-52
2023/07/10 17:11:43;;;;;;;17.25;4.50;;;25.30;60.50;;;;;;5047626;28;20435;-48
2023/07/10 17:14:14;;;;;;;15.40;4.60;;;25.30;60.80;;;;;;5042551;28;20049;-53
2023/07/10 17:16:41;;;;;;;13.27;4.32;;;25.30;60.30;;;;;;5047715;28;20396;-49
2023/07/10 17:19:07;;;;;;;17.00;4.40;;;25.30;60.50;;;;;;5041008;28;20048;-48
2023/07/10 17:21:33;;;;;;;10.68;3.92;;;25.30;60.30;;;;;;5042659;28;20025;-53
2023/07/10 17:24:00;;;;;;;16.05;4.57;;;25.30;59.30;;;;;;5039156;28;20022;-51
2023/07/10 17:26:26;;;;;;;11.68;3.70;;;25.20;59.40;;;;;;5034212;28;20033;-54
2023/07/10 17:28:52;;;;;;;14.60;4.03;;;25.20;59.00;;;;;;5028159;28;20091;-52
2023/07/10 17:31:26;;;;;;;10.70;3.92;;;25.20;59.40;;;;;;5032896;28;20155;-54
2023/07/10 17:33:54;;;;;;;25.52;4.90;;;25.30;59.60;;;;;;5016287;28;20120;-51
2023/07/10 17:36:21;;;;;;;25.83;5.13;;;25.20;59.50;;;;;;5028744;28;20401;-49
2023/07/10 17:38:47;;;;;;;10.68;4.15;;;25.30;59.90;;;;;;5026191;28;20033;-51
2023/07/10 17:41:24;;;;;;;12.57;3.70;;;25.20;59.60;;;;;;5030514;28;20034;-54
2023/07/10 17:43:57;;;;;;;15.30;4.32;;;25.30;59.60;;;;;;5031441;28;20045;-50
2023/07/10 17:46:23;;;;;;;10.95;4.18;;;25.20;59.30;;;;;;5030659;28;20026;-52
2023/07/10 17:48:49;;;;;;;17.48;4.90;;;25.30;60.40;;;;;;5015711;28;20404;-51
2023/07/10 17:51:31;;;;;;;11.02;4.20;;;25.30;59.50;;;;;;5030557;28;20029;-53
2023/07/10 17:53:58;;;;;;;12.07;4.30;;;25.30;59.70;;;;;;5014675;28;20032;-54
2023/07/10 17:56:25;;;;;;;12.75;4.18;;;25.30;59.70;;;;;;5030032;28;20026;-52
2023/07/10 17:58:54;;;;;;;9.82;3.85;;;25.20;59.60;;;;;;5031077;28;20493;-50
2023/07/10 18:01:21;;;;;;;8.60;4.32;;;25.30;59.70;;;;;;5033538;28;20022;-53
2023/07/10 18:03:48;;;;;;;17.42;4.60;;;25.30;59.50;;;;;;5031622;28;20460;-53
2023/07/10 18:06:15;;;;;;;11.70;4.55;;;25.30;59.10;;;;;;5033435;28;20057;-54
2023/07/10 18:08:41;;;;;;;8.60;4.53;;;25.30;59.10;;;;;;5010180;28;20495;-51
2023/07/10 18:11:28;;;;;;;12.02;4.28;;;25.30;59.00;;;;;;5033351;28;20100;-51
2023/07/10 18:13:54;;;;;;;8.32;4.05;;;25.30;58.80;;;;;;5033112;28;20116;-52
2023/07/10 18:16:20;;;;;;;8.95;4.63;;;25.30;58.90;;;;;;5033478;28;20152;-54
2023/07/10 18:18:45;;;;;;;9.63;4.47;;;25.30;58.90;;;;;;5033263;28;20080;-50
2023/07/10 18:21:21;;;;;;;11.60;4.35;;;25.30;59.20;;;;;;5033173;28;20025;-54
2023/07/10 18:23:48;;;;;;;18.30;5.07;;;25.30;59.30;;;;;;5028797;28;20481;-58
2023/07/10 18:26:16;;;;;;;13.50;4.85;;;25.30;60.40;;;;;;5033045;28;20030;-57
2023/07/10 18:28:42;;;;;;;13.10;4.70;;;25.30;60.50;;;;;;5032796;28;20017;-56
2023/07/10 18:31:23;;;;;;;9.75;4.15;;;25.30;60.30;;;;;;5033071;28;20404;-54
2023/07/10 18:33:50;;;;;;;11.98;4.82;;;25.40;60.40;;;;;;5032865;28;20040;-58
2023/07/10 18:36:18;;;;;;;14.13;5.13;;;25.40;60.50;;;;;;5032124;28;20404;-57
2023/07/10 18:38:44;;;;;;;14.15;5.25;;;25.40;60.40;;;;;;5032826;28;20045;-55
2023/07/10 18:41:29;;;;;;;15.00;5.30;;;25.40;60.50;;;;;;5033009;28;20443;-56
2023/07/10 18:43:58;;;;;;;16.98;5.45;;;25.40;60.50;;;;;;5032631;28;20029;-55
2023/07/10 18:46:26;;;;;;;16.85;4.95;;;25.40;60.50;;;;;;5033028;28;20106;-51
2023/07/10 18:48:53;;;;;;;10.80;4.82;;;25.40;60.60;;;;;;5015194;28;20120;-57
2023/07/10 18:51:27;;;;;;;14.90;4.97;;;25.40;60.70;;;;;;5032842;28;20463;-55
2023/07/10 18:53:56;;;;;;;11.70;4.80;;;25.50;60.60;;;;;;5032449;28;20111;-57
2023/07/10 18:56:22;;;;;;;13.10;5.07;;;25.40;60.60;;;;;;5032653;28;20076;-56
2023/07/10 18:58:48;;;;;;;14.27;4.63;;;25.40;60.60;;;;;;5032933;28;20501;-56
2023/07/10 19:01:15;;;;;;;9.05;4.43;;;25.40;60.50;;;;;;5032691;28;20025;-58
2023/07/10 19:03:43;;;;;;;10.88;4.75;;;25.40;60.50;;;;;;5014757;28;20022;-57
2023/07/10 19:06:34;;;;;;;12.38;4.82;;;25.40;60.60;;;;;;5032488;28;20029;-57
2023/07/10 19:09:00;;;;;;;9.68;4.65;;;25.40;60.50;;;;;;5032363;28;20473;-57
2023/07/10 19:11:26;;;;;;;9.07;4.18;;;25.40;60.60;;;;;;5032319;28;20037;-57
2023/07/10 19:13:52;;;;;;;9.65;4.43;;;25.40;61.10;;;;;;5031953;28;20032;-56
2023/07/10 19:16:27;;;;;;;11.57;4.50;;;25.40;60.50;;;;;;5032302;28;20570;-57
2023/07/10 19:19:01;;;;;;;11.05;5.40;;;25.40;60.50;;;;;;5032270;28;20026;-56
2023/07/10 19:21:29;;;;;;;12.23;4.97;;;25.40;60.50;;;;;;5014630;28;20072;-57
2023/07/10 19:23:55;;;;;;;13.13;4.55;;;25.40;60.40;;;;;;5031963;28;20029;-57
2023/07/10 19:26:21;;;;;;;10.35;4.97;;;25.40;60.40;;;;;;5014616;28;20568;-57
2023/07/10 19:28:48;;;;;;;8.77;4.63;;;25.40;60.40;;;;;;5032038;28;20025;-57
2023/07/10 19:31:18;;;;;;;13.80;4.57;;;25.40;60.40;;;;;;5032141;28;20021;-57
2023/07/10 19:33:47;;;;;;;11.43;4.47;;;25.40;60.40;;;;;;5031662;28;20079;-57
2023/07/10 19:36:25;;;;;;;13.55;5.78;;;25.40;60.30;;;;;;5032278;28;20022;-57
2023/07/10 19:38:51;;;;;;;14.13;6.28;;;25.40;60.30;;;;;;5031919;28;20060;-57
2023/07/10 19:41:17;;;;;;;14.23;6.97;;;25.40;60.40;;;;;;5031914;28;20060;-57
2023/07/10 19:43:43;;;;;;;15.25;5.70;;;25.40;60.30;;;;;;5031533;28;20025;-58
2023/07/10 19:46:17;;;;;;;13.55;5.70;;;25.40;60.30;;;;;;5031807;28;20561;-57
2023/07/10 19:48:44;;;;;;;11.73;5.57;;;25.40;60.30;;;;;;5031565;28;20059;-57
2023/07/10 19:51:09;;;;;;;13.25;5.70;;;25.40;60.30;;;;;;5031810;28;20397;-57
2023/07/10 19:53:36;;;;;;;11.25;5.13;;;25.40;60.30;;;;;;5031210;28;20025;-57
2023/07/10 19:56:11;;;;;;;11.40;5.28;;;25.40;60.30;;;;;;5031702;28;20022;-57
2023/07/10 19:58:37;;;;;;;10.75;4.90;;;25.40;60.30;;;;;;5031700;28;20396;-57
2023/07/10 20:01:03;;;;;;;10.02;5.05;;;25.40;60.20;;;;;;5031496;28;20026;-57
2023/07/10 20:03:33;;;;;;;8.40;4.55;;;25.40;60.20;;;;;;5031495;28;20033;-57
2023/07/10 20:06:05;;;;;;;12.27;5.13;;;25.40;60.20;;;;;;5031686;28;20107;-58
2023/07/10 20:08:35;;;;;;;10.35;4.80;;;25.40;60.20;;;;;;5031478;28;20463;-57
2023/07/10 20:11:06;;;;;;;9.57;4.88;;;25.40;60.20;;;;;;5031479;28;20128;-57
2023/07/10 20:13:33;;;;;;;12.00;4.97;;;25.40;60.80;;;;;;5013477;28;20033;-55
2023/07/10 20:16:05;;;;;;;9.32;4.78;;;25.40;60.10;;;;;;5031584;28;20029;-51
2023/07/10 20:18:33;;;;;;;13.20;4.43;;;25.40;60.10;;;;;;5013918;28;20109;-57
2023/07/10 20:21:00;;;;;;;8.43;4.57;;;25.40;60.10;;;;;;5031631;28;20100;-54
2023/07/10 20:23:27;;;;;;;9.73;4.70;;;25.40;60.10;;;;;;5013651;28;20037;-57
2023/07/10 20:25:57;;;;;;;8.52;4.35;;;25.40;60.10;;;;;;5031438;28;20033;-55
2023/07/10 20:28:32;;;;;;;8.25;4.18;;;25.40;60.10;;;;;;5031391;28;20026;-57
2023/07/10 20:30:57;;;;;;;8.68;4.50;;;25.40;60.10;;;;;;4997571;28;20033;-57
2023/07/10 20:33:28;;;;;;;8.70;4.55;;;25.40;60.00;;;;;;5031192;28;20444;-56
2023/07/10 20:35:55;;;;;;;10.63;4.80;;;25.40;60.00;;;;;;5031320;28;20104;-57
2023/07/10 20:38:26;;;;;;;8.07;4.05;;;25.40;60.00;;;;;;5030987;28;20029;-57
2023/07/10 20:40:53;;;;;;;9.13;4.20;;;25.40;59.90;;;;;;5031369;28;20481;-52
2023/07/10 20:43:24;;;;;;;9.05;4.82;;;25.40;60.00;;;;;;5030965;28;20034;-52
2023/07/10 20:45:57;;;;;;;9.00;4.10;;;25.40;60.00;;;;;;5031291;28;20068;-52
2023/07/10 20:48:34;;;;;;;8.57;4.15;;;25.40;60.00;;;;;;5031193;28;20053;-57
2023/07/10 20:51:01;;;;;;;9.35;4.05;;;25.40;60.50;;;;;;5031189;28;20080;-57
2023/07/10 20:53:28;;;;;;;8.63;4.40;;;25.40;59.90;;;;;;5030819;28;20079;-57
2023/07/10 20:55:59;;;;;;;8.23;4.03;;;25.40;59.90;;;;;;5031471;28;20459;-57
2023/07/10 20:58:27;;;;;;;7.18;3.70;;;25.40;59.90;;;;;;5031080;28;20371;-52
2023/07/10 21:00:55;;;;;;;9.50;4.55;;;25.40;59.90;;;;;;5034245;28;20485;-57
2023/07/10 21:03:28;;;;;;;8.75;3.97;;;25.40;59.90;;;;;;5034555;28;20427;-54
2023/07/10 21:06:05;;;;;;;7.03;4.13;;;25.40;59.90;;;;;;5035089;28;20461;-50
2023/07/10 21:08:34;;;;;;;8.38;3.60;;;25.40;59.90;;;;;;5034661;28;20053;-53
2023/07/10 21:11:00;;;;;;;7.10;3.78;;;25.40;59.80;;;;;;5034727;28;20029;-56
2023/07/10 21:13:27;;;;;;;8.48;4.60;;;25.40;59.80;;;;;;5034510;28;20040;-57
2023/07/10 21:15:55;;;;;;;9.05;3.70;;;25.40;59.80;;;;;;5034567;28;20039;-54
2023/07/10 21:18:25;;;;;;;6.95;3.70;;;25.40;59.80;;;;;;5016768;28;20076;-54
2023/07/10 21:20:51;;;;;;;7.43;3.70;;;25.40;59.80;;;;;;5034956;28;20026;-54
2023/07/10 21:23:24;;;;;;;6.97;4.07;;;25.40;59.80;;;;;;5034240;28;20661;-57
2023/07/10 21:25:50;;;;;;;10.73;4.40;;;25.30;59.70;;;;;;5016662;28;20030;-56
2023/07/10 21:28:20;;;;;;;7.15;3.72;;;25.40;59.70;;;;;;5034030;28;20025;-58
2023/07/10 21:30:47;;;;;;;8.50;4.00;;;25.40;59.70;;;;;;5016651;28;20033;-57
2023/07/10 21:33:21;;;;;;;11.35;3.78;;;25.40;59.70;;;;;;5033780;28;20025;-57
2023/07/10 21:35:58;;;;;;;6.68;3.75;;;25.40;59.70;;;;;;5016490;28;20449;-56
2023/07/10 21:38:24;;;;;;;8.38;4.13;;;25.40;59.70;;;;;;5033066;28;20159;-53
2023/07/10 21:40:54;;;;;;;15.02;4.00;;;25.40;60.60;;;;;;5033649;28;20021;-58
2023/07/10 21:43:27;;;;;;;10.10;4.15;;;25.40;60.00;;;;;;5033516;28;20575;-58
2023/07/10 21:45:53;;;;;;;9.48;3.92;;;25.40;60.20;;;;;;5033713;28;20025;-58
2023/07/10 21:48:21;;;;;;;12.07;3.92;;;25.40;60.50;;;;;;5033743;28;20029;-58
2023/07/10 21:50:49;;;;;;;14.48;4.22;;;25.30;60.60;;;;;;5015902;28;20052;-56
2023/07/10 21:53:17;;;;;;;29.70;5.53;;;25.30;60.90;;;;;;5032909;28;20022;-56
2023/07/10 21:55:44;;;;;;;14.38;4.70;;;25.30;60.90;;;;;;5016202;28;20026;-58
2023/07/10 21:58:16;;;;;;;13.10;4.32;;;25.30;61.00;;;;;;5033252;28;20037;-58
2023/07/10 22:00:42;;;;;;;13.60;4.68;;;25.20;61.40;;;;;;5032423;28;20534;-58
2023/07/10 22:03:28;;;;;;;17.08;4.20;;;25.20;61.50;;;;;;5032058;28;20021;-52
2023/07/10 22:05:57;;;;;;;10.52;4.72;;;25.10;61.70;;;;;;5033507;28;20494;-56
2023/07/10 22:08:23;;;;;;;19.75;5.32;;;25.10;61.70;;;;;;5033464;28;20032;-57
2023/07/10 22:10:51;;;;;;;9.13;3.80;;;25.10;61.80;;;;;;5033443;28;20029;-56
2023/07/10 22:13:27;;;;;;;9.45;4.30;;;25.00;61.70;;;;;;5033179;28;20436;-56
2023/07/10 22:15:54;;;;;;;15.10;4.80;;;25.00;61.70;;;;;;5033547;28;20017;-58
2023/07/10 22:18:22;;;;;;;7.80;4.05;;;25.00;61.80;;;;;;5033343;28;20045;-58
2023/07/10 22:20:51;;;;;;;13.02;4.35;;;25.00;62.10;;;;;;5033357;28;20078;-59
2023/07/10 22:23:19;;;;;;;9.85;4.55;;;25.00;62.30;;;;;;5033130;28;20404;-57
2023/07/10 22:25:47;;;;;;;12.98;4.25;;;25.00;62.00;;;;;;5033299;28;20037;-59
2023/07/10 22:28:19;;;;;;;10.50;4.10;;;25.00;62.20;;;;;;5033103;28;20116;-57
2023/07/10 22:30:47;;;;;;;11.20;4.43;;;25.00;62.20;;;;;;5033723;28;20037;-58
2023/07/10 22:33:16;;;;;;;19.85;4.38;;;24.90;62.30;;;;;;5032722;28;20033;-54
2023/07/10 22:35:43;;;;;;;14.68;4.25;;;25.00;62.30;;;;;;5033066;28;20030;-58
2023/07/10 22:38:11;;;;;;;6.43;3.92;;;25.00;63.00;;;;;;5062635;22;20012;-45
2023/07/10 22:40:38;;;;;;;8.25;4.10;;;25.00;62.30;;;;;;5092977;28;20074;-45
2023/07/10 22:43:04;;;;;;;8.32;4.30;;;24.90;62.10;;;;;;5072689;28;20483;-48
2023/07/10 22:45:31;;;;;;;7.18;3.90;;;24.90;62.30;;;;;;5072967;28;20107;-53
2023/07/10 22:47:58;;;;;;;7.05;4.45;;;24.90;62.30;;;;;;5072744;28;20024;-46
2023/07/10 22:50:24;;;;;;;8.18;3.85;;;24.90;62.50;;;;;;5072565;28;20039;-48
2023/07/10 22:52:50;;;;;;;9.60;4.05;;;24.80;62.50;;;;;;5072413;28;20024;-48
2023/07/10 22:55:16;;;;;;;10.63;4.40;;;24.90;62.60;;;;;;5072677;28;20024;-48
2023/07/10 22:57:45;;;;;;;10.57;4.60;;;24.90;62.70;;;;;;5072530;28;20469;-46
2023/07/10 23:00:19;;;;;;;7.18;4.28;;;24.90;62.60;;;;;;5072477;28;20100;-47
2023/07/10 23:02:45;;;;;;;8.25;4.55;;;24.80;62.70;;;;;;5072642;28;20043;-48
2023/07/10 23:05:11;;;;;;;7.80;4.15;;;24.80;62.80;;;;;;5074854;28;20552;-46
2023/07/10 23:07:37;;;;;;;7.57;4.32;;;24.80;62.80;;;;;;5072444;28;20060;-47
2023/07/10 23:10:03;;;;;;;8.00;4.53;;;24.80;62.80;;;;;;5072200;28;20467;-46
2023/07/10 23:12:29;;;;;;;10.82;4.70;;;24.80;63.00;;;;;;5072146;28;20534;-46
2023/07/10 23:14:54;;;;;;;11.13;4.35;;;24.80;63.10;;;;;;5071662;28;20029;-44
2023/07/10 23:17:20;;;;;;;8.68;4.45;;;24.80;63.00;;;;;;5072075;28;20056;-44
2023/07/10 23:19:46;;;;;;;8.13;4.20;;;24.80;63.00;;;;;;5071897;28;20021;-44
2023/07/10 23:22:12;;;;;;;9.25;4.80;;;24.80;63.00;;;;;;5071586;28;20092;-44
2023/07/10 23:24:37;;;;;;;6.55;4.22;;;24.70;63.00;;;;;;5071970;28;20021;-44
2023/07/10 23:27:04;;;;;;;10.07;4.65;;;24.70;63.10;;;;;;5072128;28;20024;-50
2023/07/10 23:29:29;;;;;;;8.95;4.38;;;24.70;63.20;;;;;;5071902;28;20025;-47
2023/07/10 23:31:55;;;;;;;10.65;4.68;;;24.70;63.30;;;;;;5071692;28;20365;-51
2023/07/10 23:34:21;;;;;;;11.25;4.47;;;24.60;63.30;;;;;;5071382;28;20495;-47
2023/07/10 23:36:47;;;;;;;10.52;4.50;;;24.60;63.50;;;;;;5071860;28;20031;-50
2023/07/10 23:39:13;;;;;;;9.93;4.95;;;24.60;63.60;;;;;;5071853;28;20035;-47
2023/07/10 23:41:39;;;;;;;12.32;5.22;;;24.70;63.70;;;;;;5071963;28;20486;-48
2023/07/10 23:44:05;;;;;;;10.00;4.95;;;24.60;63.60;;;;;;5088295;28;20502;-44
2023/07/10 23:46:31;;;;;;;11.38;4.93;;;24.60;63.50;;;;;;5091773;28;20505;-44
2023/07/10 23:48:57;;;;;;;10.48;4.63;;;24.70;63.60;;;;;;5091818;28;20024;-44
2023/07/10 23:51:22;;;;;;;8.93;4.45;;;24.70;63.70;;;;;;5091899;28;20028;-46
2023/07/10 23:53:48;;;;;;;11.02;4.35;;;24.70;63.60;;;;;;5091520;28;20514;-44
2023/07/10 23:56:14;;;;;;;9.18;4.75;;;24.70;63.60;;;;;;5092185;28;20020;-44
2023/07/10 23:58:40;;;;;;;11.32;4.78;;;24.80;63.50;;;;;;5091713;28;20043;-44
